createdAt,value
2016-09-10T00:00:36.442Z,1018.75
2016-09-10T00:01:36.385Z,1018.72
2016-09-10T00:02:36.401Z,1018.72
2016-09-10T00:03:36.426Z,1018.74
2016-09-10T00:04:36.445Z,1018.75
2016-09-10T00:05:36.462Z,1018.77
2016-09-10T00:06:36.486Z,1018.75
2016-09-10T00:07:36.504Z,1018.79
2016-09-10T00:08:36.526Z,1018.78
2016-09-10T00:09:36.554Z,1018.8
2016-09-10T00:10:36.576Z,1018.81
2016-09-10T00:11:36.612Z,1018.83
2016-09-10T00:12:36.624Z,1018.86
2016-09-10T00:13:36.637Z,1018.85
2016-09-10T00:14:36.704Z,1018.85
2016-09-10T00:15:36.681Z,1018.86
2016-09-10T00:16:36.785Z,1018.81
2016-09-10T00:17:36.715Z,1018.87
2016-09-10T00:18:36.755Z,1018.88
2016-09-10T00:19:36.758Z,1018.88
2016-09-10T00:20:36.794Z,1018.88
2016-09-10T00:21:36.795Z,1018.89
2016-09-10T00:22:36.833Z,1018.85
2016-09-10T00:23:36.839Z,1018.86
2016-09-10T00:24:36.868Z,1018.89
2016-09-10T00:25:36.950Z,1018.9
2016-09-10T00:26:36.914Z,1018.86
2016-09-10T00:27:37.047Z,1018.86
2016-09-10T00:28:36.957Z,1018.84
2016-09-10T00:29:37.011Z,1018.86
2016-09-10T00:30:36.989Z,1018.84
2016-09-10T00:31:37.020Z,1018.84
2016-09-10T00:32:37.030Z,1018.86
2016-09-10T00:33:37.050Z,1018.84
2016-09-10T00:34:37.088Z,1018.86
2016-09-10T00:35:37.132Z,1018.83
2016-09-10T00:36:37.125Z,1018.88
2016-09-10T00:37:37.132Z,1018.88
2016-09-10T00:38:37.158Z,1018.9
2016-09-10T00:39:37.187Z,1018.92
2016-09-10T00:40:37.196Z,1018.91
2016-09-10T00:41:37.216Z,1018.94
2016-09-10T00:42:37.242Z,1018.88
2016-09-10T00:43:37.414Z,1018.91
2016-09-10T00:44:37.434Z,1018.89
2016-09-10T00:45:37.306Z,1018.89
2016-09-10T00:46:37.319Z,1018.88
2016-09-10T00:47:37.340Z,1018.86
2016-09-10T00:48:37.360Z,1018.86
2016-09-10T00:49:37.387Z,1018.85
2016-09-10T00:50:37.400Z,1018.88
2016-09-10T00:51:37.446Z,1018.81
2016-09-10T00:52:37.474Z,1018.82
2016-09-10T00:53:37.479Z,1018.8
2016-09-10T00:54:37.483Z,1018.77
2016-09-10T00:55:37.508Z,1018.73
2016-09-10T00:56:37.558Z,1018.76
2016-09-10T00:57:37.586Z,1018.73
2016-09-10T00:58:37.568Z,1018.74
2016-09-10T00:59:37.596Z,1018.74
2016-09-10T01:00:37.608Z,1018.75
2016-09-10T01:01:37.625Z,1018.76
2016-09-10T01:02:37.666Z,1018.75
2016-09-10T01:03:37.671Z,1018.74
2016-09-10T01:04:37.685Z,1018.76
2016-09-10T01:05:37.706Z,1018.77
2016-09-10T01:06:37.737Z,1018.78
2016-09-10T01:07:37.756Z,1018.71
2016-09-10T01:08:37.777Z,1018.78
2016-09-10T01:09:37.805Z,1018.78
2016-09-10T01:10:37.824Z,1018.82
2016-09-10T01:11:37.836Z,1018.78
2016-09-10T01:12:37.859Z,1018.82
2016-09-10T01:13:37.873Z,1018.79
2016-09-10T01:14:38.049Z,1018.77
2016-09-10T01:15:37.920Z,1018.78
2016-09-10T01:16:37.989Z,1018.77
2016-09-10T01:17:37.955Z,1018.78
2016-09-10T01:18:37.979Z,1018.77
2016-09-10T01:19:38.024Z,1018.76
2016-09-10T01:20:38.023Z,1018.75
2016-09-10T01:21:38.049Z,1018.76
2016-09-10T01:22:38.062Z,1018.75
2016-09-10T01:23:38.089Z,1018.78
2016-09-10T01:24:38.110Z,1018.76
2016-09-10T01:25:38.146Z,1018.74
2016-09-10T01:26:38.144Z,1018.72
2016-09-10T01:27:38.238Z,1018.76
2016-09-10T01:28:38.189Z,1018.74
2016-09-10T01:29:38.214Z,1018.77
2016-09-10T01:30:38.238Z,1018.74
2016-09-10T01:31:38.245Z,1018.73
2016-09-10T01:32:38.268Z,1018.75
2016-09-10T01:33:38.314Z,1018.76
2016-09-10T01:34:38.320Z,1018.77
2016-09-10T01:35:38.330Z,1018.72
2016-09-10T01:36:38.346Z,1018.72
2016-09-10T01:37:38.367Z,1018.72
2016-09-10T01:38:38.419Z,1018.73
2016-09-10T01:39:38.409Z,1018.7
2016-09-10T01:40:38.490Z,1018.77
2016-09-10T01:41:38.458Z,1018.72
2016-09-10T01:42:38.488Z,1018.75
2016-09-10T01:43:38.497Z,1018.72
2016-09-10T01:44:38.519Z,1018.74
2016-09-10T01:45:38.538Z,1018.72
2016-09-10T01:46:38.555Z,1018.73
2016-09-10T01:47:38.585Z,1018.69
2016-09-10T01:48:38.595Z,1018.74
2016-09-10T01:49:38.615Z,1018.74
2016-09-10T01:50:38.648Z,1018.71
2016-09-10T01:51:38.668Z,1018.75
2016-09-10T01:52:38.698Z,1018.76
2016-09-10T01:53:38.705Z,1018.76
2016-09-10T01:54:38.735Z,1018.75
2016-09-10T01:55:38.746Z,1018.75
2016-09-10T01:56:38.767Z,1018.74
2016-09-10T01:57:38.789Z,1018.74
2016-09-10T01:58:38.806Z,1018.75
2016-09-10T01:59:38.829Z,1018.72
2016-09-10T02:00:38.844Z,1018.76
2016-09-10T02:01:38.872Z,1018.74
2016-09-10T02:02:38.890Z,1018.75
2016-09-10T02:03:38.907Z,1018.74
2016-09-10T02:04:38.927Z,1018.75
2016-09-10T02:05:38.954Z,1018.73
2016-09-10T02:06:38.970Z,1018.72
2016-09-10T02:07:38.986Z,1018.72
2016-09-10T02:08:39.011Z,1018.72
2016-09-10T02:09:39.189Z,1018.7
2016-09-10T02:10:39.053Z,1018.7
2016-09-10T02:11:39.154Z,1018.68
2016-09-10T02:12:39.121Z,1018.63
2016-09-10T02:13:39.119Z,1018.67
2016-09-10T02:14:39.140Z,1018.68
2016-09-10T02:15:39.158Z,1018.66
2016-09-10T02:16:39.174Z,1018.64
2016-09-10T02:17:39.200Z,1018.64
2016-09-10T02:18:39.216Z,1018.64
2016-09-10T02:19:39.258Z,1018.61
2016-09-10T02:20:39.296Z,1018.62
2016-09-10T02:21:39.289Z,1018.62
2016-09-10T02:22:39.365Z,1018.63
2016-09-10T02:23:39.315Z,1018.64
2016-09-10T02:24:39.335Z,1018.64
2016-09-10T02:25:39.358Z,1018.62
2016-09-10T02:26:39.382Z,1018.61
2016-09-10T02:27:39.401Z,1018.61
2016-09-10T02:28:39.425Z,1018.61
2016-09-10T02:29:39.444Z,1018.65
2016-09-10T02:30:39.467Z,1018.67
2016-09-10T02:31:39.497Z,1018.6
2016-09-10T02:32:39.514Z,1018.61
2016-09-10T02:33:39.529Z,1018.61
2016-09-10T02:34:39.550Z,1018.6
2016-09-10T02:35:39.562Z,1018.56
2016-09-10T02:36:39.598Z,1018.57
2016-09-10T02:37:39.611Z,1018.6
2016-09-10T02:38:39.628Z,1018.57
2016-09-10T02:39:39.651Z,1018.55
2016-09-10T02:40:39.670Z,1018.5
2016-09-10T02:41:39.704Z,1018.54
2016-09-10T02:42:39.712Z,1018.52
2016-09-10T02:43:39.730Z,1018.56
2016-09-10T02:44:39.745Z,1018.53
2016-09-10T02:45:39.775Z,1018.55
2016-09-10T02:46:39.810Z,1018.56
2016-09-10T02:47:39.809Z,1018.55
2016-09-10T02:48:39.829Z,1018.56
2016-09-10T02:49:39.848Z,1018.52
2016-09-10T02:50:39.883Z,1018.55
2016-09-10T02:51:39.889Z,1018.54
2016-09-10T02:52:39.973Z,1018.54
2016-09-10T02:53:39.941Z,1018.61
2016-09-10T02:54:39.950Z,1018.59
2016-09-10T02:55:39.975Z,1018.61
2016-09-10T02:56:39.992Z,1018.57
2016-09-10T02:57:40.021Z,1018.59
2016-09-10T02:58:40.040Z,1018.55
2016-09-10T02:59:40.058Z,1018.55
2016-09-10T03:00:40.084Z,1018.56
2016-09-10T03:01:40.097Z,1018.58
2016-09-10T03:02:40.123Z,1018.56
2016-09-10T03:03:40.137Z,1018.55
2016-09-10T03:04:40.159Z,1018.52
2016-09-10T03:05:40.232Z,1018.48
2016-09-10T03:06:40.196Z,1018.54
2016-09-10T03:07:40.219Z,1018.55
2016-09-10T03:08:40.242Z,1018.51
2016-09-10T03:09:40.260Z,1018.56
2016-09-10T03:10:40.278Z,1018.53
2016-09-10T03:11:40.298Z,1018.57
2016-09-10T03:12:40.320Z,1018.56
2016-09-10T03:13:40.340Z,1018.56
2016-09-10T03:14:40.361Z,1018.52
2016-09-10T03:15:40.380Z,1018.53
2016-09-10T03:16:40.406Z,1018.52
2016-09-10T03:17:40.420Z,1018.52
2016-09-10T03:18:40.496Z,1018.55
2016-09-10T03:19:40.458Z,1018.56
2016-09-10T03:20:40.484Z,1018.57
2016-09-10T03:21:40.511Z,1018.56
2016-09-10T03:22:40.517Z,1018.57
2016-09-10T03:23:40.557Z,1018.56
2016-09-10T03:24:40.561Z,1018.6
2016-09-10T03:25:40.595Z,1018.56
2016-09-10T03:26:40.597Z,1018.55
2016-09-10T03:27:40.713Z,1018.54
2016-09-10T03:28:40.665Z,1018.54
2016-09-10T03:29:40.663Z,1018.52
2016-09-10T03:30:40.686Z,1018.54
2016-09-10T03:31:40.709Z,1018.54
2016-09-10T03:32:40.745Z,1018.54
2016-09-10T03:33:40.758Z,1018.57
2016-09-10T03:34:40.777Z,1018.59
2016-09-10T03:35:40.782Z,1018.56
2016-09-10T03:36:40.800Z,1018.56
2016-09-10T03:37:40.820Z,1018.56
2016-09-10T03:38:40.887Z,1018.6
2016-09-10T03:39:40.881Z,1018.54
2016-09-10T03:40:40.907Z,1018.57
2016-09-10T03:41:40.907Z,1018.59
2016-09-10T03:42:40.940Z,1018.53
2016-09-10T03:43:40.963Z,1018.53
2016-09-10T03:44:40.970Z,1018.53
2016-09-10T03:45:40.987Z,1018.52
2016-09-10T03:46:41.001Z,1018.52
2016-09-10T03:47:41.031Z,1018.5
2016-09-10T03:48:41.046Z,1018.5
2016-09-10T03:49:41.079Z,1018.47
2016-09-10T03:50:41.089Z,1018.5
2016-09-10T03:51:41.104Z,1018.47
2016-09-10T03:52:41.128Z,1018.46
2016-09-10T03:53:41.141Z,1018.5
2016-09-10T03:54:41.164Z,1018.44
2016-09-10T03:55:41.185Z,1018.39
2016-09-10T03:56:41.212Z,1018.45
2016-09-10T03:57:41.230Z,1018.41
2016-09-10T03:58:41.254Z,1018.43
2016-09-10T03:59:41.265Z,1018.44
2016-09-10T04:00:41.287Z,1018.4
2016-09-10T04:01:41.306Z,1018.43
2016-09-10T04:02:41.331Z,1018.47
2016-09-10T04:03:41.346Z,1018.45
2016-09-10T04:04:41.371Z,1018.44
2016-09-10T04:05:41.387Z,1018.46
2016-09-10T04:06:41.405Z,1018.46
2016-09-10T04:07:41.427Z,1018.45
2016-09-10T04:08:41.447Z,1018.42
2016-09-10T04:09:41.469Z,1018.45
2016-09-10T04:10:41.488Z,1018.4
2016-09-10T04:11:41.506Z,1018.44
2016-09-10T04:12:41.610Z,1018.44
2016-09-10T04:13:41.549Z,1018.45
2016-09-10T04:14:41.604Z,1018.44
2016-09-10T04:15:41.590Z,1018.45
2016-09-10T04:16:41.625Z,1018.51
2016-09-10T04:17:41.682Z,1018.5
2016-09-10T04:18:41.657Z,1018.53
2016-09-10T04:19:41.669Z,1018.49
2016-09-10T04:20:41.692Z,1018.49
2016-09-10T04:21:41.707Z,1018.53
2016-09-10T04:22:41.724Z,1018.53
2016-09-10T04:23:41.770Z,1018.51
2016-09-10T04:24:41.767Z,1018.51
2016-09-10T04:25:41.792Z,1018.53
2016-09-10T04:26:41.824Z,1018.55
2016-09-10T04:27:41.831Z,1018.55
2016-09-10T04:28:41.849Z,1018.54
2016-09-10T04:29:41.869Z,1018.54
2016-09-10T04:30:41.888Z,1018.55
2016-09-10T04:31:41.918Z,1018.55
2016-09-10T04:32:41.951Z,1018.53
2016-09-10T04:33:41.950Z,1018.56
2016-09-10T04:34:41.968Z,1018.56
2016-09-10T04:35:41.988Z,1018.52
2016-09-10T04:36:42.008Z,1018.57
2016-09-10T04:37:42.031Z,1018.56
2016-09-10T04:38:42.053Z,1018.54
2016-09-10T04:39:42.070Z,1018.53
2016-09-10T04:40:42.093Z,1018.53
2016-09-10T04:41:42.109Z,1018.54
2016-09-10T04:42:42.127Z,1018.54
2016-09-10T04:43:42.158Z,1018.54
2016-09-10T04:44:42.168Z,1018.55
2016-09-10T04:45:42.198Z,1018.52
2016-09-10T04:46:42.214Z,1018.5
2016-09-10T04:47:42.238Z,1018.49
2016-09-10T04:48:42.247Z,1018.54
2016-09-10T04:49:42.278Z,1018.54
2016-09-10T04:50:42.289Z,1018.56
2016-09-10T04:51:42.307Z,1018.57
2016-09-10T04:52:42.327Z,1018.58
2016-09-10T04:53:42.345Z,1018.59
2016-09-10T04:54:42.370Z,1018.56
2016-09-10T04:55:42.386Z,1018.58
2016-09-10T04:56:42.413Z,1018.59
2016-09-10T04:57:42.441Z,1018.6
2016-09-10T04:58:42.497Z,1018.57
2016-09-10T04:59:42.468Z,1018.59
2016-09-10T05:00:42.488Z,1018.63
2016-09-10T05:01:42.511Z,1018.63
2016-09-10T05:02:42.529Z,1018.64
2016-09-10T05:03:42.548Z,1018.64
2016-09-10T05:04:42.567Z,1018.65
2016-09-10T05:05:42.588Z,1018.64
2016-09-10T05:06:42.619Z,1018.65
2016-09-10T05:07:42.633Z,1018.63
2016-09-10T05:08:42.650Z,1018.67
2016-09-10T05:09:42.778Z,1018.63
2016-09-10T05:10:42.688Z,1018.6
2016-09-10T05:11:42.720Z,1018.65
2016-09-10T05:12:42.734Z,1018.66
2016-09-10T05:13:42.748Z,1018.65
2016-09-10T05:14:42.767Z,1018.66
2016-09-10T05:15:42.792Z,1018.66
2016-09-10T05:16:42.814Z,1018.65
2016-09-10T05:17:42.826Z,1018.64
2016-09-10T05:18:42.860Z,1018.62
2016-09-10T05:19:42.877Z,1018.64
2016-09-10T05:20:42.899Z,1018.65
2016-09-10T05:21:42.909Z,1018.62
2016-09-10T05:22:42.968Z,1018.63
2016-09-10T05:23:42.958Z,1018.62
2016-09-10T05:24:43.017Z,1018.61
2016-09-10T05:25:42.998Z,1018.62
2016-09-10T05:26:43.019Z,1018.6
2016-09-10T05:27:43.026Z,1018.62
2016-09-10T05:28:43.047Z,1018.61
2016-09-10T05:29:43.157Z,1018.63
2016-09-10T05:30:43.089Z,1018.58
2016-09-10T05:31:43.109Z,1018.58
2016-09-10T05:32:43.127Z,1018.61
2016-09-10T05:33:43.181Z,1018.62
2016-09-10T05:34:43.181Z,1018.6
2016-09-10T05:35:43.195Z,1018.61
2016-09-10T05:36:43.220Z,1018.53
2016-09-10T05:37:43.239Z,1018.53
2016-09-10T05:38:43.259Z,1018.53
2016-09-10T05:39:43.280Z,1018.49
2016-09-10T05:40:43.297Z,1018.52
2016-09-10T05:41:43.317Z,1018.52
2016-09-10T05:42:43.338Z,1018.51
2016-09-10T05:43:43.349Z,1018.47
2016-09-10T05:44:43.373Z,1018.48
2016-09-10T05:45:43.384Z,1018.48
2016-09-10T05:46:43.416Z,1018.48
2016-09-10T05:47:43.436Z,1018.45
2016-09-10T05:48:43.456Z,1018.49
2016-09-10T05:49:43.472Z,1018.49
2016-09-10T05:50:43.508Z,1018.52
2016-09-10T05:51:43.524Z,1018.58
2016-09-10T05:52:43.540Z,1018.57
2016-09-10T05:53:43.555Z,1018.57
2016-09-10T05:54:43.588Z,1018.59
2016-09-10T05:55:43.598Z,1018.63
2016-09-10T05:56:43.630Z,1018.61
2016-09-10T05:57:43.639Z,1018.64
2016-09-10T05:58:43.675Z,1018.6
2016-09-10T05:59:43.696Z,1018.61
2016-09-10T06:00:43.713Z,1018.54
2016-09-10T06:01:43.735Z,1018.57
2016-09-10T06:02:43.754Z,1018.55
2016-09-10T06:03:43.777Z,1018.56
2016-09-10T06:04:43.821Z,1018.56
2016-09-10T06:05:43.830Z,1018.55
2016-09-10T06:06:43.841Z,1018.55
2016-09-10T06:07:43.871Z,1018.55
2016-09-10T06:08:43.901Z,1018.57
2016-09-10T06:09:43.928Z,1018.57
2016-09-10T06:10:44.228Z,1018.57
2016-09-10T06:11:44.164Z,1018.55
2016-09-10T06:12:44.129Z,1018.61
2016-09-10T06:13:44.162Z,1018.63
2016-09-10T06:14:44.184Z,1018.59
2016-09-10T06:15:44.160Z,1018.57
2016-09-10T06:16:44.186Z,1018.58
2016-09-10T06:17:44.167Z,1018.6
2016-09-10T06:18:44.197Z,1018.58
2016-09-10T06:19:44.161Z,1018.59
2016-09-10T06:20:44.188Z,1018.59
2016-09-10T06:21:44.315Z,1018.61
2016-09-10T06:22:44.272Z,1018.6
2016-09-10T06:23:44.483Z,1018.64
2016-09-10T06:24:44.293Z,1018.63
2016-09-10T06:25:44.372Z,1018.66
2016-09-10T06:26:44.389Z,1018.67
2016-09-10T06:27:44.421Z,1018.66
2016-09-10T06:28:44.406Z,1018.63
2016-09-10T06:29:44.433Z,1018.61
2016-09-10T06:30:44.455Z,1018.6
2016-09-10T06:31:44.478Z,1018.6
2016-09-10T06:32:44.629Z,1018.63
2016-09-10T06:33:44.539Z,1018.62
2016-09-10T06:34:44.559Z,1018.65
2016-09-10T06:35:44.587Z,1018.63
2016-09-10T06:36:44.628Z,1018.61
2016-09-10T06:37:44.661Z,1018.63
2016-09-10T06:38:44.668Z,1018.66
2016-09-10T06:39:44.698Z,1018.7
2016-09-10T06:40:44.736Z,1018.65
2016-09-10T06:41:44.760Z,1018.69
2016-09-10T06:42:44.803Z,1018.66
2016-09-10T06:43:44.831Z,1018.65
2016-09-10T06:44:44.840Z,1018.66
2016-09-10T06:45:44.947Z,1018.62
2016-09-10T06:46:44.894Z,1018.64
2016-09-10T06:47:44.925Z,1018.62
2016-09-10T06:48:44.956Z,1018.61
2016-09-10T06:49:44.978Z,1018.63
2016-09-10T06:50:45.012Z,1018.61
2016-09-10T06:51:45.040Z,1018.61
2016-09-10T06:52:45.065Z,1018.64
2016-09-10T06:53:45.099Z,1018.59
2016-09-10T06:54:45.127Z,1018.63
2016-09-10T06:55:45.167Z,1018.59
2016-09-10T06:56:45.196Z,1018.58
2016-09-10T06:57:45.214Z,1018.58
2016-09-10T06:58:45.240Z,1018.58
2016-09-10T06:59:45.277Z,1018.56
2016-09-10T07:00:45.303Z,1018.57
2016-09-10T07:01:45.347Z,1018.57
2016-09-10T07:02:45.365Z,1018.58
2016-09-10T07:03:45.385Z,1018.61
2016-09-10T07:04:45.417Z,1018.6
2016-09-10T07:05:45.470Z,1018.61
2016-09-10T07:06:45.486Z,1018.59
2016-09-10T07:07:45.513Z,1018.56
2016-09-10T07:08:45.531Z,1018.54
2016-09-10T07:09:45.569Z,1018.57
2016-09-10T07:10:45.595Z,1018.56
2016-09-10T07:11:45.626Z,1018.57
2016-09-10T07:12:45.659Z,1018.57
2016-09-10T07:13:45.694Z,1018.56
2016-09-10T07:14:45.712Z,1018.58
2016-09-10T07:15:45.746Z,1018.58
2016-09-10T07:16:45.768Z,1018.58
2016-09-10T07:17:45.807Z,1018.59
2016-09-10T07:18:45.832Z,1018.61
2016-09-10T07:19:45.856Z,1018.6
2016-09-10T07:20:45.889Z,1018.6
2016-09-10T07:21:45.917Z,1018.63
2016-09-10T07:22:45.958Z,1018.64
2016-09-10T07:23:45.975Z,1018.62
2016-09-10T07:24:46.012Z,1018.61
2016-09-10T07:25:46.050Z,1018.62
2016-09-10T07:26:46.120Z,1018.62
2016-09-10T07:27:46.093Z,1018.61
2016-09-10T07:28:46.123Z,1018.61
2016-09-10T07:29:46.152Z,1018.6
2016-09-10T07:30:46.179Z,1018.58
2016-09-10T07:31:46.250Z,1018.6
2016-09-10T07:32:46.247Z,1018.61
2016-09-10T07:33:46.286Z,1018.59
2016-09-10T07:34:46.327Z,1018.56
2016-09-10T07:35:46.337Z,1018.59
2016-09-10T07:36:46.372Z,1018.59
2016-09-10T07:37:46.394Z,1018.53
2016-09-10T07:38:46.425Z,1018.51
2016-09-10T07:39:46.455Z,1018.51
2016-09-10T07:40:46.486Z,1018.43
2016-09-10T07:41:46.517Z,1018.41
2016-09-10T07:42:46.531Z,1018.41
2016-09-10T07:43:46.571Z,1018.46
2016-09-10T07:44:46.599Z,1018.41
2016-09-10T07:45:46.625Z,1018.43
2016-09-10T07:46:46.659Z,1018.4
2016-09-10T07:47:46.685Z,1018.42
2016-09-10T07:48:46.716Z,1018.36
2016-09-10T07:49:46.734Z,1018.37
2016-09-10T07:50:46.764Z,1018.36
2016-09-10T07:51:46.784Z,1018.36
2016-09-10T07:52:46.817Z,1018.31
2016-09-10T07:53:46.842Z,1018.35
2016-09-10T07:54:46.879Z,1018.36
2016-09-10T07:55:46.935Z,1018.32
2016-09-10T07:56:46.928Z,1018.28
2016-09-10T07:57:46.954Z,1018.28
2016-09-10T07:58:46.986Z,1018.25
2016-09-10T07:59:47.017Z,1018.27
2016-09-10T08:00:47.039Z,1018.26
2016-09-10T08:01:47.068Z,1018.25
2016-09-10T08:02:47.087Z,1018.26
2016-09-10T08:03:47.113Z,1018.27
2016-09-10T08:04:47.135Z,1018.25
2016-09-10T08:05:47.169Z,1018.22
2016-09-10T08:06:47.187Z,1018.24
2016-09-10T08:07:47.213Z,1018.25
2016-09-10T08:08:47.241Z,1018.24
2016-09-10T08:09:47.266Z,1018.24
2016-09-10T08:10:47.303Z,1018.2
2016-09-10T08:11:47.323Z,1018.23
2016-09-10T08:12:47.347Z,1018.2
2016-09-10T08:13:47.375Z,1018.18
2016-09-10T08:14:47.478Z,1018.18
2016-09-10T08:15:47.782Z,1018.21
2016-09-10T08:16:47.454Z,1018.17
2016-09-10T08:17:47.476Z,1018.18
2016-09-10T08:18:47.508Z,1018.17
2016-09-10T08:19:47.532Z,1018.13
2016-09-10T08:20:47.561Z,1018.15
2016-09-10T08:21:47.586Z,1018.17
2016-09-10T08:22:47.621Z,1018.13
2016-09-10T08:23:47.630Z,1018.13
2016-09-10T08:24:47.654Z,1018.09
2016-09-10T08:25:47.684Z,1018.09
2016-09-10T08:26:47.704Z,1018.09
2016-09-10T08:27:47.751Z,1018.11
2016-09-10T08:28:47.779Z,1018.09
2016-09-10T08:29:47.786Z,1018.06
2016-09-10T08:30:47.810Z,1018.03
2016-09-10T08:31:47.837Z,1018.06
2016-09-10T08:32:47.857Z,1018.04
2016-09-10T08:33:47.884Z,1018.03
2016-09-10T08:34:47.913Z,1018.04
2016-09-10T08:35:47.948Z,1018.08
2016-09-10T08:36:47.969Z,1018.04
2016-09-10T08:37:47.990Z,1018.08
2016-09-10T08:38:48.017Z,1018.04
2016-09-10T08:39:48.046Z,1017.99
2016-09-10T08:40:48.077Z,1018.02
2016-09-10T08:41:48.096Z,1018.01
2016-09-10T08:42:48.117Z,1017.99
2016-09-10T08:43:48.191Z,1018.03
2016-09-10T08:44:48.168Z,1018.01
2016-09-10T08:45:48.216Z,1018.02
2016-09-10T08:46:48.227Z,1018.04
2016-09-10T08:47:48.251Z,1018
2016-09-10T08:48:48.277Z,1018.05
2016-09-10T08:49:48.302Z,1018.02
2016-09-10T08:50:48.336Z,1018.03
2016-09-10T08:51:48.358Z,1018.01
2016-09-10T08:52:48.372Z,1018.03
2016-09-10T08:53:48.407Z,1017.99
2016-09-10T08:54:48.443Z,1018.01
2016-09-10T08:55:48.461Z,1018.01
2016-09-10T08:56:48.486Z,1018.02
2016-09-10T08:57:48.521Z,1018
2016-09-10T08:58:48.541Z,1018.01
2016-09-10T08:59:48.563Z,1018.03
2016-09-10T09:00:48.653Z,1018.03
2016-09-10T09:01:48.616Z,1018.02
2016-09-10T09:02:48.692Z,1018
2016-09-10T09:03:48.665Z,1017.94
2016-09-10T09:04:48.688Z,1017.96
2016-09-10T09:05:48.731Z,1017.99
2016-09-10T09:06:48.758Z,1017.95
2016-09-10T09:07:48.775Z,1017.92
2016-09-10T09:08:48.797Z,1017.96
2016-09-10T09:09:48.832Z,1017.96
2016-09-10T09:10:48.851Z,1017.94
2016-09-10T09:11:48.878Z,1017.93
2016-09-10T09:12:48.895Z,1017.92
2016-09-10T09:13:48.933Z,1017.92
2016-09-10T09:14:49.007Z,1017.92
2016-09-10T09:15:48.980Z,1017.9
2016-09-10T09:16:49.011Z,1017.89
2016-09-10T09:17:49.042Z,1017.91
2016-09-10T09:18:49.061Z,1017.92
2016-09-10T09:19:49.095Z,1017.93
2016-09-10T09:20:49.113Z,1017.86
2016-09-10T09:21:49.137Z,1017.88
2016-09-10T09:22:49.171Z,1017.87
2016-09-10T09:23:49.211Z,1017.9
2016-09-10T09:24:49.237Z,1017.9
2016-09-10T09:25:49.245Z,1017.9
2016-09-10T09:26:49.271Z,1017.9
2016-09-10T09:27:49.311Z,1017.92
2016-09-10T09:28:49.321Z,1017.88
2016-09-10T09:29:49.361Z,1017.89
2016-09-10T09:30:49.378Z,1017.83
2016-09-10T09:31:49.402Z,1017.84
2016-09-10T09:32:49.436Z,1017.81
2016-09-10T09:33:49.451Z,1017.84
2016-09-10T09:34:49.482Z,1017.86
2016-09-10T09:35:49.516Z,1017.84
2016-09-10T09:36:49.544Z,1017.84
2016-09-10T09:37:49.568Z,1017.85
2016-09-10T09:38:49.597Z,1017.81
2016-09-10T09:39:49.623Z,1017.77
2016-09-10T09:40:49.649Z,1017.78
2016-09-10T09:41:49.680Z,1017.79
2016-09-10T09:42:49.715Z,1017.76
2016-09-10T09:43:49.725Z,1017.76
2016-09-10T09:44:49.769Z,1017.78
2016-09-10T09:45:49.788Z,1017.78
2016-09-10T09:46:49.850Z,1017.78
2016-09-10T09:47:49.845Z,1017.75
2016-09-10T09:48:49.865Z,1017.76
2016-09-10T09:49:49.903Z,1017.73
2016-09-10T09:50:49.922Z,1017.73
2016-09-10T09:51:50.055Z,1017.72
2016-09-10T09:52:49.983Z,1017.67
2016-09-10T09:53:50.026Z,1017.66
2016-09-10T09:54:50.031Z,1017.68
2016-09-10T09:55:50.077Z,1017.64
2016-09-10T09:56:50.090Z,1017.61
2016-09-10T09:57:50.135Z,1017.65
2016-09-10T09:58:50.149Z,1017.61
2016-09-10T09:59:50.162Z,1017.58
2016-09-10T10:00:50.198Z,1017.53
2016-09-10T10:01:50.300Z,1017.53
2016-09-10T10:02:50.271Z,1017.53
2016-09-10T10:03:50.275Z,1017.5
2016-09-10T10:04:50.314Z,1017.55
2016-09-10T10:05:50.336Z,1017.54
2016-09-10T10:06:50.358Z,1017.51
2016-09-10T10:07:50.390Z,1017.56
2016-09-10T10:08:50.422Z,1017.55
2016-09-10T10:09:50.438Z,1017.51
2016-09-10T10:10:50.482Z,1017.49
2016-09-10T10:11:50.497Z,1017.52
2016-09-10T10:12:50.541Z,1017.5
2016-09-10T10:13:50.582Z,1017.5
2016-09-10T10:14:50.598Z,1017.48
2016-09-10T10:15:50.596Z,1017.47
2016-09-10T10:16:50.644Z,1017.44
2016-09-10T10:17:50.665Z,1017.42
2016-09-10T10:18:50.688Z,1017.39
2016-09-10T10:19:50.727Z,1017.41
2016-09-10T10:20:50.748Z,1017.39
2016-09-10T10:21:50.774Z,1017.36
2016-09-10T10:22:50.835Z,1017.35
2016-09-10T10:23:50.832Z,1017.34
2016-09-10T10:24:50.871Z,1017.3
2016-09-10T10:25:50.886Z,1017.32
2016-09-10T10:26:50.917Z,1017.34
2016-09-10T10:27:50.942Z,1017.32
2016-09-10T10:28:50.965Z,1017.28
2016-09-10T10:29:51.015Z,1017.31
2016-09-10T10:30:51.019Z,1017.29
2016-09-10T10:31:51.058Z,1017.26
2016-09-10T10:32:51.076Z,1017.3
2016-09-10T10:33:51.154Z,1017.28
2016-09-10T10:34:51.159Z,1017.23
2016-09-10T10:35:51.160Z,1017.2
2016-09-10T10:36:51.188Z,1017.17
2016-09-10T10:37:51.217Z,1017.19
2016-09-10T10:38:51.257Z,1017.21
2016-09-10T10:39:51.282Z,1017.18
2016-09-10T10:40:51.313Z,1017.17
2016-09-10T10:41:51.331Z,1017.14
2016-09-10T10:42:51.355Z,1017.14
2016-09-10T10:43:51.390Z,1017.13
2016-09-10T10:44:51.415Z,1017.1
2016-09-10T10:45:51.443Z,1017.08
2016-09-10T10:46:51.475Z,1017.08
2016-09-10T10:47:51.499Z,1017.12
2016-09-10T10:48:51.526Z,1017.11
2016-09-10T10:49:51.562Z,1017.1
2016-09-10T10:50:51.594Z,1017.06
2016-09-10T10:51:51.610Z,1017.04
2016-09-10T10:52:51.646Z,1017.05
2016-09-10T10:53:51.679Z,1017.02
2016-09-10T10:54:51.689Z,1017.03
2016-09-10T10:55:51.728Z,1017
2016-09-10T10:56:51.747Z,1017.02
2016-09-10T10:57:51.783Z,1016.96
2016-09-10T10:58:51.806Z,1016.98
2016-09-10T10:59:51.856Z,1017.02
2016-09-10T11:00:51.903Z,1016.96
2016-09-10T11:01:51.897Z,1017
2016-09-10T11:02:51.933Z,1016.98
2016-09-10T11:03:51.942Z,1017.04
2016-09-10T11:04:51.988Z,1017.03
2016-09-10T11:05:51.998Z,1017.01
2016-09-10T11:06:52.049Z,1017.03
2016-09-10T11:07:52.066Z,1017.01
2016-09-10T11:08:52.075Z,1017.01
2016-09-10T11:09:52.108Z,1016.96
2016-09-10T11:10:52.140Z,1016.97
2016-09-10T11:11:52.166Z,1016.99
2016-09-10T11:12:52.206Z,1016.98
2016-09-10T11:13:52.227Z,1016.99
2016-09-10T11:14:52.256Z,1016.97
2016-09-10T11:15:52.278Z,1016.99
2016-09-10T11:16:52.306Z,1016.96
2016-09-10T11:17:52.334Z,1016.95
2016-09-10T11:18:52.367Z,1016.99
2016-09-10T11:19:52.414Z,1016.97
2016-09-10T11:20:52.436Z,1016.91
2016-09-10T11:21:52.459Z,1016.97
2016-09-10T11:22:52.475Z,1016.96
2016-09-10T11:23:52.504Z,1016.91
2016-09-10T11:24:52.537Z,1016.9
2016-09-10T11:25:52.555Z,1016.94
2016-09-10T11:26:52.587Z,1016.89
2016-09-10T11:27:52.639Z,1016.86
2016-09-10T11:28:52.651Z,1016.88
2016-09-10T11:29:52.676Z,1016.89
2016-09-10T11:30:52.713Z,1016.88
2016-09-10T11:31:52.738Z,1016.89
2016-09-10T11:32:52.753Z,1016.87
2016-09-10T11:33:52.788Z,1016.88
2016-09-10T11:34:52.809Z,1016.88
2016-09-10T11:35:52.863Z,1016.86
2016-09-10T11:36:52.869Z,1016.85
2016-09-10T11:37:52.897Z,1016.78
2016-09-10T11:38:52.926Z,1016.81
2016-09-10T11:39:52.968Z,1016.83
2016-09-10T11:40:52.989Z,1016.79
2016-09-10T11:41:53.049Z,1016.78
2016-09-10T11:42:53.037Z,1016.78
2016-09-10T11:43:53.115Z,1016.78
2016-09-10T11:44:53.087Z,1016.76
2016-09-10T11:45:53.119Z,1016.77
2016-09-10T11:46:53.200Z,1016.77
2016-09-10T11:47:53.188Z,1016.76
2016-09-10T11:48:53.238Z,1016.72
2016-09-10T11:49:53.245Z,1016.71
2016-09-10T11:50:53.263Z,1016.7
2016-09-10T11:51:53.291Z,1016.73
2016-09-10T11:52:53.315Z,1016.68
2016-09-10T11:53:53.349Z,1016.69
2016-09-10T11:54:53.385Z,1016.68
2016-09-10T11:55:53.410Z,1016.65
2016-09-10T11:56:53.433Z,1016.69
2016-09-10T11:57:53.463Z,1016.68
2016-09-10T11:58:53.483Z,1016.69
2016-09-10T11:59:53.512Z,1016.68
2016-09-10T12:00:53.544Z,1016.71
2016-09-10T12:01:53.579Z,1016.68
2016-09-10T12:02:53.617Z,1016.64
2016-09-10T12:03:53.622Z,1016.65
2016-09-10T12:04:53.661Z,1016.61
2016-09-10T12:05:53.685Z,1016.63
2016-09-10T12:06:53.715Z,1016.61
2016-09-10T12:07:53.794Z,1016.56